Time;durP1;ratioP1;P1;durP2;ratioP2;P2;SDS_P1;SDS_P2;PMS_P1;PMS_P2;Temp;Humidity;BMP_temperature;BMP_pressure;BME280_temperature;BME280_humidity;BME280_pressure;Samples;Min_cycle;Max_cycle;Signal;HPM_P1;HPM_P2
2022/01/26 00:07:24;;;;;;;61.05;24.98;;;4.10;91.30;;;;;;5035454;28;20420;-51
2022/01/26 00:09:50;;;;;;;51.50;26.20;;;4.10;91.20;;;;;;5035428;28;20097;-49
2022/01/26 00:12:15;;;;;;;50.47;23.25;;;4.10;91.20;;;;;;5035256;28;20033;-50
2022/01/26 00:14:43;;;;;;;51.95;25.80;;;4.10;91.20;;;;;;5034980;28;20112;-50
2022/01/26 00:17:11;;;;;;;56.20;26.48;;;4.10;91.30;;;;;;5034722;28;20411;-50
2022/01/26 00:19:55;;;;;;;65.63;25.98;;;4.10;91.30;;;;;;5034926;28;20118;-53
2022/01/26 00:22:42;;;;;;;53.13;28.05;;;4.10;91.20;;;;;;5035305;28;20096;-50
2022/01/26 00:25:23;;;;;;;56.30;24.80;;;4.00;91.30;;;;;;5034574;28;20040;-50
2022/01/26 00:28:06;;;;;;;51.80;24.25;;;4.10;91.30;;;;;;5035419;28;20029;-49
2022/01/26 00:38:46;;;;;;;59.85;25.48;;;4.20;91.20;;;;;;5034659;28;20124;-50
2022/01/26 00:41:17;;;;;;;54.05;23.60;;;4.10;91.20;;;;;;5034538;28;20041;-50
2022/01/26 00:43:50;;;;;;;59.05;26.10;;;4.10;91.20;;;;;;5034385;28;20052;-49
2022/01/26 00:46:16;;;;;;;61.67;26.25;;;4.10;91.10;;;;;;5034734;28;20091;-50
2022/01/26 00:48:43;;;;;;;52.45;25.27;;;4.10;91.20;;;;;;5034764;28;20034;-49
2022/01/26 00:51:15;;;;;;;56.83;25.73;;;4.10;91.20;;;;;;5034789;28;20049;-52
2022/01/26 00:54:03;;;;;;;62.70;26.48;;;4.10;91.20;;;;;;5034903;28;20033;-51
2022/01/26 00:56:29;;;;;;;60.38;27.48;;;4.10;91.20;;;;;;5034522;28;20029;-49
2022/01/26 00:58:55;;;;;;;62.97;26.70;;;4.10;91.30;;;;;;5034376;28;20502;-56
2022/01/26 01:01:20;;;;;;;60.78;26.25;;;4.10;91.20;;;;;;5034574;28;20034;-50
2022/01/26 01:03:47;;;;;;;57.92;26.77;;;4.10;91.20;;;;;;5034239;28;20029;-51
2022/01/26 01:08:48;;;;;;;58.75;27.73;;;4.10;91.30;;;;;;5034149;28;20014;-52
2022/01/26 01:11:14;;;;;;;67.45;29.52;;;4.00;91.20;;;;;;5034571;28;20459;-50
2022/01/26 01:13:42;;;;;;;70.68;31.05;;;4.10;91.20;;;;;;5049785;28;20063;-50
2022/01/26 01:16:11;;;;;;;65.55;31.77;;;4.10;91.10;;;;;;5034619;28;20411;-50
2022/01/26 01:27:03;;;;;;;71.18;32.28;;;4.00;91.10;;;;;;5034488;28;20120;-49
2022/01/26 01:32:11;;;;;;;73.68;34.00;;;3.90;91.20;;;;;;5034401;28;20521;-50
2022/01/26 01:34:40;;;;;;;69.55;32.65;;;4.00;91.20;;;;;;5033650;28;20553;-49
2022/01/26 01:37:13;;;;;;;72.60;34.75;;;4.00;91.30;;;;;;5033972;28;20061;-51
2022/01/26 01:39:39;;;;;;;72.60;31.60;;;4.00;91.30;;;;;;5033732;28;20418;-50
2022/01/26 01:42:07;;;;;;;73.15;32.63;;;4.00;91.10;;;;;;5033595;28;20033;-53
2022/01/26 01:44:33;;;;;;;80.53;33.80;;;4.00;91.20;;;;;;5032270;28;20099;-50
2022/01/26 01:46:59;;;;;;;78.40;33.85;;;4.00;91.20;;;;;;5033892;28;20033;-51
2022/01/26 01:49:25;;;;;;;71.70;33.30;;;4.00;91.20;;;;;;5033419;28;20029;-50
2022/01/26 01:51:56;;;;;;;77.45;32.22;;;3.90;91.20;;;;;;5033790;28;20029;-49
2022/01/26 01:54:22;;;;;;;73.82;35.38;;;4.00;91.20;;;;;;5046171;28;20130;-52
2022/01/26 01:56:56;;;;;;;79.65;34.13;;;4.00;91.30;;;;;;5033685;28;20082;-49
2022/01/26 01:59:32;;;;;;;81.63;34.45;;;4.00;91.30;;;;;;5033307;28;20055;-48
2022/01/26 02:01:59;;;;;;;79.32;36.58;;;4.00;91.30;;;;;;5033833;28;20048;-51
2022/01/26 02:04:25;;;;;;;82.00;34.20;;;4.00;91.20;;;;;;5033054;28;20026;-49
2022/01/26 02:06:53;;;;;;;89.45;35.15;;;4.00;91.30;;;;;;5033437;28;20037;-49
2022/01/26 02:09:19;;;;;;;79.65;35.47;;;4.00;91.30;;;;;;5032571;28;20022;-51
2022/01/26 02:11:53;;;;;;;79.50;36.15;;;4.00;91.30;;;;;;5032523;28;20096;-48
2022/01/26 02:14:28;;;;;;;83.72;36.70;;;4.10;91.20;;;;;;5032230;28;20041;-49
2022/01/26 02:17:11;;;;;;;89.43;36.45;;;4.00;91.20;;;;;;5033562;28;20393;-49
2022/01/26 02:50:16;;;;;;;77.97;32.97;;;3.90;91.00;;;;;;5033021;28;20351;-50
2022/01/26 02:55:22;;;;;;;61.90;30.38;;;3.90;91.00;;;;;;5033045;28;20124;-48
2022/01/26 02:58:21;;;;;;;70.95;33.33;;;3.90;91.00;;;;;;5032918;28;20037;-49
2022/01/26 03:01:02;;;;;;;66.68;32.03;;;3.90;91.10;;;;;;5036114;28;20045;-48
2022/01/26 03:03:34;;;;;;;71.50;34.95;;;3.90;91.00;;;;;;5036965;28;20116;-52
2022/01/26 03:06:05;;;;;;;75.57;35.83;;;3.90;90.90;;;;;;5036563;28;20073;-49
2022/01/26 03:08:35;;;;;;;71.15;33.17;;;3.90;91.00;;;;;;5036615;28;20025;-49
2022/01/26 03:11:08;;;;;;;79.53;34.92;;;3.90;91.00;;;;;;5035932;28;20426;-51
2022/01/26 03:13:37;;;;;;;67.15;31.95;;;3.90;91.00;;;;;;5036636;28;20458;-49
2022/01/26 03:16:10;;;;;;;67.90;34.03;;;3.90;91.00;;;;;;5016934;28;20026;-47
2022/01/26 03:21:40;;;;;;;67.53;32.63;;;3.90;90.90;;;;;;5039384;28;20052;-51
2022/01/26 03:34:34;;;;;;;75.28;32.63;;;3.90;90.90;;;;;;5035681;28;20405;-50
2022/01/26 03:37:06;;;;;;;66.13;31.02;;;3.90;90.90;;;;;;5034850;28;20033;-53
2022/01/26 03:39:40;;;;;;;71.82;31.20;;;3.90;90.90;;;;;;5035442;28;20099;-50
2022/01/26 03:42:08;;;;;;;77.70;33.65;;;3.90;90.90;;;;;;5036353;28;20039;-52
2022/01/26 03:44:36;;;;;;;79.13;33.58;;;3.90;90.90;;;;;;5035800;28;20049;-50
2022/01/26 03:47:03;;;;;;;80.53;33.33;;;3.90;91.00;;;;;;5036293;28;20030;-54
2022/01/26 03:49:28;;;;;;;78.93;32.97;;;3.90;91.00;;;;;;5047464;28;20025;-51
2022/01/26 03:51:54;;;;;;;73.22;30.65;;;3.80;91.00;;;;;;5036079;28;20434;-51
2022/01/26 03:54:21;;;;;;;73.10;32.35;;;3.80;91.00;;;;;;5035412;28;20033;-50
2022/01/26 03:56:46;;;;;;;80.13;34.92;;;3.80;91.00;;;;;;5035693;28;20033;-51
2022/01/26 03:59:12;;;;;;;78.78;32.67;;;3.80;91.10;;;;;;5035505;28;20064;-52
2022/01/26 04:01:39;;;;;;;69.75;30.90;;;3.70;91.10;;;;;;5035612;28;20313;-52
2022/01/26 04:04:05;;;;;;;80.43;31.60;;;3.70;91.10;;;;;;5034131;28;20427;-51
2022/01/26 04:06:32;;;;;;;81.80;32.55;;;3.70;91.10;;;;;;5035398;28;20029;-52
2022/01/26 04:08:58;;;;;;;82.63;35.20;;;3.70;91.20;;;;;;5033603;28;20030;-55
2022/01/26 04:11:35;;;;;;;74.63;34.10;;;3.70;91.20;;;;;;5035679;28;20029;-53
2022/01/26 04:14:05;;;;;;;77.22;31.27;;;3.70;91.20;;;;;;5035019;28;20033;-52
2022/01/26 04:16:31;;;;;;;78.68;31.73;;;3.70;91.20;;;;;;5035466;28;20420;-51
2022/01/26 04:19:01;;;;;;;73.28;31.65;;;3.70;91.20;;;;;;5035074;28;20117;-50
2022/01/26 04:24:08;;;;;;;79.07;31.48;;;3.70;91.20;;;;;;5035332;28;20116;-50
2022/01/26 04:27:01;;;;;;;88.47;37.42;;;3.70;91.20;;;;;;5035297;28;20025;-50
2022/01/26 04:29:26;;;;;;;79.85;32.42;;;3.70;91.30;;;;;;5028092;28;20378;-50
2022/01/26 04:31:51;;;;;;;82.53;33.40;;;3.70;91.30;;;;;;5035427;28;20104;-49
2022/01/26 04:34:17;;;;;;;75.15;31.08;;;3.70;91.20;;;;;;5034390;28;20422;-54
2022/01/26 04:36:51;;;;;;;88.18;35.85;;;3.70;91.20;;;;;;5034034;28;20029;-49
2022/01/26 04:39:23;;;;;;;84.30;35.35;;;3.60;91.10;;;;;;5034922;28;20030;-49
2022/01/26 04:41:54;;;;;;;82.70;32.42;;;3.70;91.20;;;;;;5035115;28;20025;-48
2022/01/26 04:44:26;;;;;;;81.30;31.55;;;3.60;91.20;;;;;;5034339;28;20045;-49
2022/01/26 04:46:52;;;;;;;81.93;33.42;;;3.60;91.30;;;;;;5034867;28;20477;-49
2022/01/26 04:49:23;;;;;;;85.88;33.50;;;3.70;91.20;;;;;;5034660;28;20041;-49
2022/01/26 04:51:51;;;;;;;84.68;35.00;;;3.60;91.20;;;;;;5035033;28;20120;-49
2022/01/26 04:54:16;;;;;;;84.63;34.00;;;3.60;91.30;;;;;;5034115;28;20459;-51
2022/01/26 04:56:42;;;;;;;88.30;35.00;;;3.70;91.30;;;;;;5034235;28;20041;-48
2022/01/26 04:59:08;;;;;;;84.53;35.22;;;3.60;91.20;;;;;;5034179;28;20334;-48
2022/01/26 05:01:33;;;;;;;78.82;31.92;;;3.60;91.20;;;;;;5034644;28;20522;-50
2022/01/26 05:03:59;;;;;;;84.65;34.35;;;3.70;91.10;;;;;;5032844;28;20026;-48
2022/01/26 05:06:26;;;;;;;86.22;33.45;;;3.70;91.20;;;;;;5033256;28;20061;-48
2022/01/26 05:08:51;;;;;;;77.90;34.08;;;3.60;91.00;;;;;;5032941;28;20104;-48
2022/01/26 05:11:28;;;;;;;85.13;35.78;;;3.70;91.10;;;;;;5033844;28;20388;-47
2022/01/26 05:13:55;;;;;;;82.05;34.60;;;3.70;91.00;;;;;;5034378;28;20087;-48
2022/01/26 05:16:21;;;;;;;81.45;34.53;;;3.70;91.00;;;;;;5034023;28;20140;-48
2022/01/26 05:18:46;;;;;;;81.63;35.35;;;3.70;91.00;;;;;;5034018;28;20044;-48
2022/01/26 05:21:12;;;;;;;78.45;32.63;;;3.70;90.90;;;;;;5033508;28;20121;-48
2022/01/26 05:23:37;;;;;;;79.70;33.67;;;3.60;90.90;;;;;;5033939;28;20447;-48
2022/01/26 05:26:05;;;;;;;83.35;33.35;;;3.60;90.90;;;;;;5034279;28;20078;-48
2022/01/26 05:28:31;;;;;;;81.63;34.13;;;3.50;90.70;;;;;;5033654;28;20371;-48
2022/01/26 05:30:57;;;;;;;83.55;36.28;;;3.60;90.90;;;;;;5034003;28;20026;-48
2022/01/26 05:33:23;;;;;;;79.28;34.72;;;3.50;90.90;;;;;;5033347;28;20029;-48
2022/01/26 05:35:52;;;;;;;87.60;36.38;;;3.50;91.00;;;;;;5033936;28;20498;-47
2022/01/26 05:38:18;;;;;;;84.00;34.22;;;3.50;90.90;;;;;;5032864;28;20044;-47
2022/01/26 05:40:46;;;;;;;79.85;34.15;;;3.50;90.90;;;;;;5033680;28;20092;-48
2022/01/26 05:43:11;;;;;;;82.85;34.80;;;3.50;90.90;;;;;;5033878;28;20036;-48
2022/01/26 05:45:39;;;;;;;79.45;37.88;;;3.50;90.70;;;;;;5033422;28;20046;-47
2022/01/26 05:48:09;;;;;;;88.90;36.90;;;3.50;90.80;;;;;;5033894;28;20080;-47
2022/01/26 05:50:37;;;;;;;88.43;33.72;;;3.50;90.80;;;;;;5032604;28;20029;-47
2022/01/26 05:53:05;;;;;;;94.93;35.05;;;3.50;90.80;;;;;;5049372;28;20038;-47
2022/01/26 05:55:31;;;;;;;86.57;36.33;;;3.40;90.70;;;;;;5033676;28;20431;-47
2022/01/26 05:57:56;;;;;;;79.20;35.40;;;3.40;90.70;;;;;;5032962;28;20131;-47
2022/01/26 06:00:22;;;;;;;89.78;35.58;;;3.40;90.70;;;;;;5033611;28;20029;-47
2022/01/26 06:02:48;;;;;;;79.75;34.15;;;3.50;90.80;;;;;;5032032;28;20095;-46
2022/01/26 06:05:13;;;;;;;92.68;36.80;;;3.40;90.80;;;;;;5032922;28;20363;-48
2022/01/26 06:07:39;;;;;;;82.43;35.33;;;3.50;90.70;;;;;;5033906;28;20037;-47
2022/01/26 06:10:05;;;;;;;80.55;35.15;;;3.50;90.60;;;;;;5032086;28;20068;-48
2022/01/26 06:12:35;;;;;;;92.32;34.00;;;3.40;90.50;;;;;;5033431;28;20090;-47
2022/01/26 06:15:03;;;;;;;83.55;36.58;;;3.50;90.50;;;;;;5039261;28;20111;-48
2022/01/26 06:17:29;;;;;;;94.63;36.75;;;3.40;90.50;;;;;;5033794;28;20044;-46
2022/01/26 06:19:55;;;;;;;83.88;35.47;;;3.40;90.60;;;;;;5033378;28;20033;-46
2022/01/26 06:22:20;;;;;;;82.80;34.50;;;3.40;90.50;;;;;;5032750;28;20038;-49
2022/01/26 06:24:46;;;;;;;90.72;37.58;;;3.40;90.60;;;;;;5032550;28;20025;-48
2022/01/26 06:27:11;;;;;;;86.97;35.22;;;3.40;90.60;;;;;;5032714;28;20042;-46
2022/01/26 06:29:37;;;;;;;87.07;36.42;;;3.40;90.60;;;;;;5032613;28;20032;-46
2022/01/26 06:32:03;;;;;;;84.07;35.92;;;3.40;90.60;;;;;;5032987;28;20033;-46
2022/01/26 06:34:31;;;;;;;87.68;34.85;;;3.40;90.50;;;;;;5036622;28;20351;-48
2022/01/26 06:36:57;;;;;;;78.65;34.67;;;3.40;90.50;;;;;;5037323;28;20029;-46
2022/01/26 06:39:23;;;;;;;85.53;34.92;;;3.40;90.40;;;;;;5037096;28;20036;-46
2022/01/26 06:41:52;;;;;;;92.80;36.03;;;3.40;90.50;;;;;;5036904;28;20034;-48
2022/01/26 06:44:25;;;;;;;79.05;33.20;;;3.40;90.40;;;;;;5036341;28;20059;-48
2022/01/26 06:49:35;;;;;;;90.18;34.92;;;3.40;90.40;;;;;;5037136;28;20056;-49
2022/01/26 06:52:00;;;;;;;82.03;35.63;;;3.40;90.30;;;;;;5037212;28;20041;-46
2022/01/26 06:54:26;;;;;;;75.38;34.97;;;3.40;90.40;;;;;;5035829;28;20419;-46
2022/01/26 06:56:52;;;;;;;77.78;34.10;;;3.40;90.20;;;;;;5036707;28;20042;-46
2022/01/26 06:59:19;;;;;;;81.88;31.98;;;3.40;90.30;;;;;;5036906;28;20025;-46
2022/01/26 07:01:44;;;;;;;78.65;35.22;;;3.40;90.10;;;;;;5036848;28;20060;-46
2022/01/26 07:04:10;;;;;;;76.43;35.60;;;3.40;90.10;;;;;;5035726;28;20435;-46
2022/01/26 07:06:35;;;;;;;70.78;34.13;;;3.40;90.10;;;;;;5036664;28;20133;-46
2022/01/26 07:09:01;;;;;;;77.13;33.47;;;3.40;90.10;;;;;;5036164;28;20025;-45
2022/01/26 07:11:26;;;;;;;79.50;33.05;;;3.40;89.90;;;;;;5036770;28;20117;-47
2022/01/26 07:13:53;;;;;;;81.47;35.65;;;3.40;89.90;;;;;;5036035;28;20042;-48
2022/01/26 07:21:50;;;;;;;76.30;31.05;;;3.40;89.70;;;;;;5036433;28;20048;-45
2022/01/26 07:24:18;;;;;;;76.68;32.17;;;3.40;89.70;;;;;;5035944;28;20021;-46
2022/01/26 07:26:46;;;;;;;78.43;33.13;;;3.40;89.70;;;;;;5042111;28;20037;-52
2022/01/26 07:29:12;;;;;;;67.15;31.85;;;3.40;89.60;;;;;;5035112;28;20451;-45
2022/01/26 07:31:47;;;;;;;70.88;33.05;;;3.40;89.60;;;;;;5036422;28;20045;-45
2022/01/26 07:34:13;;;;;;;73.97;32.42;;;3.40;89.50;;;;;;5036155;28;20036;-46
2022/01/26 07:36:40;;;;;;;76.82;33.42;;;3.40;89.50;;;;;;5036279;28;20029;-47
2022/01/26 07:39:09;;;;;;;62.33;30.42;;;3.40;89.70;;;;;;5035672;28;20045;-45
2022/01/26 07:41:35;;;;;;;64.72;30.45;;;3.40;89.60;;;;;;5036207;28;20029;-45
2022/01/26 07:44:02;;;;;;;72.57;33.92;;;3.40;89.50;;;;;;5035390;28;20046;-47
2022/01/26 07:46:27;;;;;;;69.65;31.15;;;3.40;89.40;;;;;;5035677;28;20079;-47
2022/01/26 07:48:54;;;;;;;71.60;31.92;;;3.40;89.40;;;;;;5035935;28;20045;-47
2022/01/26 07:51:19;;;;;;;72.28;33.08;;;3.30;89.50;;;;;;5036128;28;20027;-47
2022/01/26 07:53:46;;;;;;;72.47;32.25;;;3.40;89.50;;;;;;5034885;28;20033;-51
2022/01/26 07:56:11;;;;;;;72.30;31.08;;;3.40;89.40;;;;;;5035660;28;20071;-44
2022/01/26 07:58:37;;;;;;;73.72;32.17;;;3.40;89.40;;;;;;5035404;28;20092;-46
2022/01/26 08:01:03;;;;;;;70.20;32.92;;;3.40;89.30;;;;;;5034452;28;20099;-47
2022/01/26 08:03:33;;;;;;;80.93;35.63;;;3.40;89.40;;;;;;5035862;28;20363;-46
2022/01/26 08:06:03;;;;;;;69.65;29.73;;;3.30;89.30;;;;;;5035118;28;20033;-44
2022/01/26 08:08:29;;;;;;;;;;;3.30;89.40;;;;;;5036064;28;20037;-50
2022/01/26 08:10:56;;;;;;;69.78;30.73;;;3.30;89.30;;;;;;5034342;28;19912;-45
2022/01/26 08:13:22;;;;;;;75.60;34.10;;;3.20;89.40;;;;;;5034577;28;20117;-46
2022/01/26 08:15:47;;;;;;;75.72;34.67;;;3.30;89.50;;;;;;5035515;28;20097;-46
2022/01/26 08:18:13;;;;;;;70.97;31.58;;;3.30;89.40;;;;;;5035303;28;20034;-47
2022/01/26 08:20:41;;;;;;;75.15;32.35;;;3.30;89.40;;;;;;5035373;28;20455;-45
2022/01/26 08:23:09;;;;;;;79.10;35.70;;;3.30;89.30;;;;;;5035494;28;20432;-44
2022/01/26 08:25:34;;;;;;;75.30;32.75;;;3.30;89.30;;;;;;5035286;28;20056;-46
2022/01/26 08:28:08;;;;;;;80.43;31.08;;;3.20;89.40;;;;;;5034991;28;20447;-45
2022/01/26 08:30:37;;;;;;;76.50;34.40;;;3.30;89.50;;;;;;5034898;28;20025;-44
2022/01/26 08:33:04;;;;;;;75.22;33.88;;;3.20;89.40;;;;;;5035204;28;20079;-46
2022/01/26 08:35:30;;;;;;;79.10;32.50;;;3.30;89.60;;;;;;5035025;28;20030;-45
2022/01/26 08:37:55;;;;;;;81.88;34.33;;;3.30;89.60;;;;;;5035060;28;20032;-48
2022/01/26 08:40:21;;;;;;;73.45;34.38;;;3.30;89.70;;;;;;5034990;28;20033;-48
2022/01/26 08:42:49;;;;;;;73.63;33.58;;;3.30;89.60;;;;;;5034467;28;20369;-46
2022/01/26 08:45:14;;;;;;;78.97;35.17;;;3.20;89.70;;;;;;5033612;28;20053;-49
2022/01/26 08:47:40;;;;;;;77.45;33.58;;;3.20;89.70;;;;;;5034718;28;20036;-47
2022/01/26 08:50:07;;;;;;;77.55;33.80;;;3.20;89.80;;;;;;5033823;28;20030;-50
2022/01/26 08:52:35;;;;;;;75.65;35.08;;;3.20;89.90;;;;;;5034562;28;20034;-47
2022/01/26 08:55:04;;;;;;;74.43;32.33;;;3.20;90.10;;;;;;5032753;28;20050;-46
2022/01/26 08:57:32;;;;;;;78.32;33.20;;;3.30;90.00;;;;;;5033964;28;20025;-46
2022/01/26 08:59:59;;;;;;;77.90;33.20;;;3.30;90.00;;;;;;5034476;28;20037;-46
2022/01/26 09:02:27;;;;;;;84.20;33.35;;;3.30;89.90;;;;;;5033901;28;20084;-46
2022/01/26 09:04:53;;;;;;;86.75;37.58;;;3.20;89.80;;;;;;5032373;28;20065;-46
2022/01/26 09:07:20;;;;;;;71.00;34.80;;;3.30;89.90;;;;;;5034154;28;20065;-46
2022/01/26 09:09:46;;;;;;;83.80;36.25;;;3.30;90.00;;;;;;5032668;28;20040;-45
2022/01/26 09:12:19;;;;;;;78.38;32.72;;;3.40;90.00;;;;;;5033246;28;20312;-46
2022/01/26 09:14:47;;;;;;;84.20;34.90;;;3.40;89.90;;;;;;5033296;28;20036;-46
2022/01/26 09:17:15;;;;;;;74.82;32.10;;;3.40;90.00;;;;;;5033213;28;20048;-46
2022/01/26 09:19:43;;;;;;;79.35;33.33;;;3.40;89.90;;;;;;5021306;28;20041;-48
2022/01/26 09:22:13;;;;;;;82.68;35.55;;;3.40;89.90;;;;;;5034230;28;20022;-46
2022/01/26 09:24:40;;;;;;;81.15;33.05;;;3.40;90.00;;;;;;5034076;28;20091;-46
2022/01/26 09:27:12;;;;;;;83.82;36.05;;;3.40;90.00;;;;;;5034073;28;20030;-47
2022/01/26 09:29:37;;;;;;;76.65;33.55;;;3.30;89.80;;;;;;5033862;28;20497;-47
2022/01/26 09:32:07;;;;;;;74.22;32.22;;;3.30;89.90;;;;;;5033868;28;20071;-46
2022/01/26 09:34:35;;;;;;;;;;;3.40;90.00;;;;;;5034763;28;20367;-46
2022/01/26 09:37:03;;;;;;;74.38;33.47;;;3.40;89.90;;;;;;5033635;28;19912;-45
2022/01/26 09:39:29;;;;;;;83.65;36.78;;;3.40;90.00;;;;;;5033744;28;20040;-46
2022/01/26 09:41:55;;;;;;;80.38;36.50;;;3.40;90.00;;;;;;5033701;28;20038;-46
2022/01/26 09:44:21;;;;;;;84.03;36.22;;;3.40;90.00;;;;;;5033342;28;20057;-47
2022/01/26 09:46:48;;;;;;;77.18;35.80;;;3.50;89.90;;;;;;5032613;28;20120;-45
2022/01/26 09:49:18;;;;;;;68.65;32.33;;;3.40;89.90;;;;;;5033809;28;20037;-45
2022/01/26 09:51:47;;;;;;;;;;;3.50;89.90;;;;;;5033353;28;20052;-46
2022/01/26 09:54:15;;;;;;;80.43;34.55;;;3.50;89.80;;;;;;5033530;28;19912;-45
2022/01/26 09:56:52;;;;;;;81.80;33.80;;;3.50;89.70;;;;;;5033778;28;20033;-46
2022/01/26 09:59:19;;;;;;;82.13;33.40;;;3.50;89.90;;;;;;5026651;28;20140;-45
2022/01/26 10:01:51;;;;;;;77.75;34.83;;;3.50;89.70;;;;;;5032434;28;20116;-46
2022/01/26 10:04:35;;;;;;;78.57;33.83;;;3.50;89.60;;;;;;5012710;28;20045;-45
2022/01/26 10:07:15;;;;;;;72.60;35.03;;;3.50;89.70;;;;;;5032932;28;20100;-45
2022/01/26 10:17:44;;;;;;;;;;;3.60;89.60;;;;;;5034324;28;20063;-46
2022/01/26 10:20:15;;;;;;;73.72;33.20;;;3.60;89.60;;;;;;5033549;28;19964;-45
2022/01/26 10:22:42;;;;;;;69.00;31.67;;;3.60;89.50;;;;;;5033146;28;20041;-50
2022/01/26 10:25:19;;;;;;;76.82;33.50;;;3.60;89.50;;;;;;5032258;28;20021;-44
2022/01/26 10:27:54;;;;;;;71.38;33.42;;;3.60;89.50;;;;;;5033102;28;20025;-45
2022/01/26 10:30:20;;;;;;;75.90;35.05;;;3.60;89.40;;;;;;5033098;28;20029;-44
2022/01/26 10:32:47;;;;;;;76.10;33.22;;;3.60;89.50;;;;;;5032149;28;20065;-48
2022/01/26 10:35:15;;;;;;;75.32;32.25;;;3.60;89.60;;;;;;5033660;28;20034;-45
2022/01/26 10:37:52;;;;;;;76.60;33.72;;;3.60;89.60;;;;;;5033033;28;20398;-46
2022/01/26 10:40:22;;;;;;;74.57;33.05;;;3.60;89.50;;;;;;5032786;28;20042;-46
2022/01/26 10:42:57;;;;;;;67.93;34.05;;;3.50;89.50;;;;;;5033049;28;20036;-45
2022/01/26 10:45:48;;;;;;;74.57;35.28;;;3.60;89.60;;;;;;5032794;28;20124;-45
2022/01/26 10:48:29;;;;;;;76.20;35.15;;;3.60;89.70;;;;;;5013427;28;20073;-45
2022/01/26 10:51:21;;;;;;;81.78;36.85;;;3.60;89.60;;;;;;5032773;28;20029;-44
2022/01/26 10:53:55;;;;;;;77.40;34.72;;;3.60;89.70;;;;;;5032535;28;20430;-44
2022/01/26 10:56:20;;;;;;;82.05;35.53;;;3.60;89.80;;;;;;5032929;28;20018;-44
2022/01/26 10:58:46;;;;;;;79.57;37.88;;;3.70;89.90;;;;;;5032404;28;20534;-46
2022/01/26 11:01:12;;;;;;;81.25;35.97;;;3.70;89.90;;;;;;5032765;28;20474;-45
2022/01/26 11:03:38;;;;;;;77.88;35.05;;;3.70;89.90;;;;;;5032889;28;20030;-44
2022/01/26 11:06:05;;;;;;;78.05;35.00;;;3.70;89.90;;;;;;5033217;28;20335;-45
2022/01/26 11:08:41;;;;;;;79.47;37.33;;;3.70;89.70;;;;;;5032619;28;20029;-45
2022/01/26 11:11:18;;;;;;;78.70;35.90;;;3.80;89.90;;;;;;5013082;28;20034;-44
2022/01/26 11:13:46;;;;;;;82.43;36.30;;;3.80;89.90;;;;;;5028759;28;20029;-47
2022/01/26 11:16:14;;;;;;;82.88;37.35;;;3.70;89.70;;;;;;5032546;28;20038;-44
2022/01/26 11:18:54;;;;;;;82.38;37.42;;;3.80;89.90;;;;;;5032969;28;20478;-44
2022/01/26 11:21:25;;;;;;;;;;;3.70;89.80;;;;;;5036583;28;20037;-46
2022/01/26 11:24:02;;;;;;;81.65;34.97;;;3.70;90.00;;;;;;5036489;28;19912;-45
2022/01/26 11:26:30;;;;;;;77.80;35.50;;;3.80;90.10;;;;;;5035870;28;20067;-46
2022/01/26 11:28:56;;;;;;;80.10;38.80;;;3.80;90.00;;;;;;5035471;28;20025;-46
2022/01/26 11:31:23;;;;;;;82.20;36.47;;;3.80;90.00;;;;;;5048580;28;20029;-47
2022/01/26 11:33:51;;;;;;;97.70;40.58;;;3.80;90.10;;;;;;5036004;28;20052;-46
2022/01/26 11:36:18;;;;;;;84.25;36.25;;;3.80;90.20;;;;;;5035864;28;20045;-48
2022/01/26 11:42:11;;;;;;;94.13;40.17;;;3.90;90.30;;;;;;5035589;28;20101;-48
2022/01/26 11:47:30;;;;;;;86.68;38.13;;;4.00;90.40;;;;;;5036784;28;20052;-47
2022/01/26 11:50:07;;;;;;;;;;;4.00;90.40;;;;;;5036263;28;20029;-49
2022/01/26 11:52:38;;;;;;;88.22;37.47;;;4.00;90.30;;;;;;5035569;28;19920;-46
2022/01/26 11:55:17;;;;;;;86.45;38.42;;;4.10;90.40;;;;;;5035402;28;20038;-47
2022/01/26 11:57:50;;;;;;;81.57;35.92;;;4.20;90.40;;;;;;5034931;28;20320;-45
2022/01/26 12:00:27;;;;;;;89.97;39.78;;;4.20;90.40;;;;;;5035427;28;20060;-46
2022/01/26 12:02:57;;;;;;;87.20;37.88;;;4.20;90.30;;;;;;5035201;28;20238;-45
2022/01/26 12:05:25;;;;;;;93.75;41.15;;;4.30;90.40;;;;;;5035011;28;20029;-47
2022/01/26 12:08:00;;;;;;;81.50;38.25;;;4.30;90.20;;;;;;5035706;28;20427;-46
2022/01/26 12:10:30;;;;;;;81.93;36.72;;;4.40;90.40;;;;;;5035303;28;20021;-51
2022/01/26 12:13:03;;;;;;;90.47;40.45;;;4.40;90.10;;;;;;5035725;28;20339;-48
2022/01/26 12:15:33;;;;;;;85.20;39.10;;;4.30;90.10;;;;;;5037227;28;20090;-46
2022/01/26 12:18:17;;;;;;;79.72;38.15;;;4.40;90.20;;;;;;5035331;28;20118;-46
2022/01/26 12:38:47;;;;;;;91.15;39.53;;;4.40;90.30;;;;;;5031863;28;20075;-46
2022/01/26 12:43:58;;;;;;;85.97;37.47;;;4.40;90.40;;;;;;5035040;28;20056;-45
2022/01/26 12:46:32;;;;;;;78.65;38.83;;;4.40;90.50;;;;;;5034729;28;20363;-48
2022/01/26 12:49:01;;;;;;;82.88;36.83;;;4.50;90.50;;;;;;5034849;28;20025;-47
2022/01/26 12:51:28;;;;;;;79.22;36.75;;;4.50;90.60;;;;;;5035119;28;20022;-46
2022/01/26 12:53:59;;;;;;;79.22;36.10;;;4.50;90.50;;;;;;5033742;28;20367;-46
2022/01/26 12:56:30;;;;;;;83.53;36.45;;;4.50;90.70;;;;;;5034431;28;20037;-46
2022/01/26 12:59:06;;;;;;;74.30;35.38;;;4.50;90.60;;;;;;5034697;28;20157;-46
2022/01/26 13:01:31;;;;;;;71.38;34.88;;;4.60;90.60;;;;;;5034355;28;20566;-46
2022/01/26 13:04:04;;;;;;;81.45;38.28;;;4.60;90.60;;;;;;5034437;28;20040;-47
2022/01/26 13:06:34;;;;;;;74.85;33.22;;;4.60;90.70;;;;;;5033983;28;20026;-49
2022/01/26 13:09:01;;;;;;;68.20;34.47;;;4.60;90.70;;;;;;5034338;28;20049;-49
2022/01/26 13:11:33;;;;;;;68.93;35.28;;;4.70;90.70;;;;;;5033372;28;20025;-49
2022/01/26 13:14:03;;;;;;;79.25;34.83;;;4.70;90.60;;;;;;5034048;28;20025;-47
2022/01/26 13:16:36;;;;;;;73.63;34.38;;;4.70;90.60;;;;;;5033792;28;20079;-49
2022/01/26 13:24:18;;;;;;;65.30;31.67;;;4.70;90.80;;;;;;5034050;28;20424;-48
2022/01/26 13:27:07;;;;;;;70.70;33.88;;;4.70;90.80;;;;;;5034019;28;20040;-51
2022/01/26 13:32:30;;;;;;;73.80;32.88;;;4.70;91.00;;;;;;5034102;28;20486;-49
2022/01/26 13:35:14;;;;;;;76.18;33.40;;;4.70;91.10;;;;;;5034211;28;20439;-51
2022/01/26 13:40:43;;;;;;;65.50;32.30;;;4.80;91.10;;;;;;5033860;28;20033;-49
2022/01/26 13:56:33;;;;;;;51.90;27.60;;;4.90;91.20;;;;;;5031874;28;20041;-50
2022/01/26 13:59:10;;;;;;;64.45;28.92;;;4.90;91.20;;;;;;5026548;28;20029;-50
2022/01/26 14:01:41;;;;;;;56.30;28.15;;;4.90;91.30;;;;;;5033436;28;20022;-51
2022/01/26 14:04:06;;;;;;;55.90;25.10;;;4.90;91.20;;;;;;5033801;28;20045;-55
2022/01/26 14:06:32;;;;;;;57.40;25.90;;;4.90;91.10;;;;;;5033420;28;20021;-48
2022/01/26 14:08:58;;;;;;;56.92;25.35;;;4.80;91.20;;;;;;5033569;28;20029;-50
2022/01/26 14:11:23;;;;;;;58.95;28.88;;;4.80;91.20;;;;;;5033031;28;20029;-48
2022/01/26 14:13:50;;;;;;;51.22;25.95;;;4.80;91.30;;;;;;5031901;28;20348;-49
2022/01/26 14:16:18;;;;;;;57.90;26.05;;;4.80;91.40;;;;;;5033438;28;20045;-50
2022/01/26 14:18:49;;;;;;;55.03;27.20;;;4.80;91.40;;;;;;5032504;28;20358;-49
2022/01/26 14:21:32;;;;;;;53.92;27.45;;;4.80;91.40;;;;;;5031689;28;20072;-49
2022/01/26 14:24:24;;;;;;;59.38;27.45;;;4.80;91.40;;;;;;5033470;28;20060;-49
2022/01/26 14:26:54;;;;;;;44.33;24.60;;;4.80;91.40;;;;;;5032908;28;20029;-50
2022/01/26 14:32:01;;;;;;;50.47;25.38;;;4.90;91.50;;;;;;5032962;28;20421;-49
2022/01/26 14:40:30;;;;;;;59.20;28.17;;;4.90;91.40;;;;;;5033164;28;20048;-48
2022/01/26 15:18:57;;;;;;;63.95;28.50;;;4.80;91.40;;;;;;5019692;28;20094;-49
2022/01/26 15:32:19;;;;;;;65.25;30.25;;;4.90;91.60;;;;;;5036507;28;20045;-48
2022/01/26 15:34:37;;;;;;;64.57;30.90;;;4.80;91.60;;;;;;5036023;28;20059;-48
2022/01/26 16:04:42;;;;;;;63.47;29.25;;;4.90;91.80;;;;;;5021031;28;20076;-47
2022/01/26 16:07:24;;;;;;;78.90;32.53;;;5.00;91.90;;;;;;5034483;28;20048;-47
2022/01/26 16:37:44;;;;;;;72.47;32.50;;;5.10;91.50;;;;;;5035548;28;20033;-46
2022/01/26 16:54:02;;;;;;;74.28;31.27;;;5.20;91.50;;;;;;5034482;28;20139;-46
2022/01/26 17:26:57;;;;;;;60.50;28.90;;;5.20;91.40;;;;;;5034622;28;20041;-46
2022/01/26 18:07:17;;;;;;;64.32;31.42;;;5.10;92.10;;;;;;5033528;28;20042;-47
2022/01/26 18:17:53;;;;;;;50.63;26.90;;;5.20;92.10;;;;;;5033761;28;20029;-50
2022/01/26 18:26:13;;;;;;;55.92;27.83;;;5.10;92.20;;;;;;5032252;28;20454;-49
2022/01/26 18:50:12;;;;;;;53.25;24.88;;;5.20;92.40;;;;;;5033469;28;20098;-51
2022/01/26 18:52:40;;;;;;;65.78;24.98;;;5.20;92.40;;;;;;5032889;28;20041;-49
2022/01/26 18:55:07;;;;;;;59.38;26.05;;;5.20;92.50;;;;;;5032902;28;20094;-51
2022/01/26 18:57:32;;;;;;;66.30;28.88;;;5.20;92.50;;;;;;5031777;28;20355;-49
2022/01/26 18:59:58;;;;;;;59.47;27.77;;;5.20;92.40;;;;;;5032904;28;20044;-50
2022/01/26 19:02:25;;;;;;;60.22;27.02;;;5.30;92.30;;;;;;5032781;28;20048;-49